Pedro Point — WDB5945 — position and weather

sailwx.info

Track history (hours):
 
Tides and Currents Weather Stations Pressure Air Temp Water Temp Dewpoint Dewpoint Depression Visibility Wind Speed Wind Dir Waves Ship Positions

Pedro Point

Owner: TAURUS MARINE, SAN FRANCISCO, CA. More information available from US FCC via Universal Licensing System and Coast Guard Vessel Documentation Center.

Last reported at 2017-Oct-18 18:30 UTC. Time now 2017-Oct-18 18:40 UTC.
Position N 37°46' W 122°23'.

; draft 1.7 m.

Type: Towing. MMSI: 366915390.

Date/timePositionNaut miles runAvg speedWind from/ knotsBaromVisibWave heightAir tempDewpointWater temp
2017-Oct-18 18:30N 37°46' W 122°23'0 0.0
2017-Oct-18 18:00N 37°46' W 122°23'0 0.0
2017-Oct-18 17:30N 37°46' W 122°23'0 0.0
2017-Oct-18 17:00N 37°46' W 122°23'0 0.1
2017-Oct-18 16:30N 37°46' W 122°23'0 0.0
2017-Oct-18 16:00N 37°46' W 122°23'0 0.0
2017-Oct-18 15:30N 37°46' W 122°23'0 0.0
2017-Oct-18 15:00N 37°46' W 122°23'0 0.3
2017-Oct-18 14:00N 37°46' W 122°23'0 0.0
2017-Oct-17 23:05N 37°46' W 122°23'0 2.0
2017-Oct-17 23:00N 37°47' W 122°23'3 5.9
2017-Oct-17 22:30N 37°49' W 122°24'4 7.9
2017-Oct-17 22:00N 37°53' W 122°25'5 9.9
2017-Oct-17 21:30N 37°58' W 122°26'5 9.4
2017-Oct-17 21:00N 38°02' W 122°22'4 8.0
2017-Oct-17 20:30N 38°03' W 122°17'3 5.2
2017-Oct-17 19:59N 38°06' W 122°16'0 0.3
2017-Oct-17 19:26N 38°06' W 122°16'0 0.0
2017-Oct-17 18:54N 38°06' W 122°16'0 0.1
2017-Oct-17 18:30N 38°06' W 122°16'0 0.0
2017-Oct-17 16:00N 38°06' W 122°16'0 0.1
2017-Oct-17 15:12N 38°06' W 122°16'0 0.3
2017-Oct-17 14:46N 38°06' W 122°16'1 2.6
2017-Oct-17 14:30N 38°05' W 122°15'3 5.8
2017-Oct-17 14:00N 38°03' W 122°18'3 6.6
2017-Oct-17 13:30N 38°02' W 122°22'4 7.5
2017-Oct-17 13:00N 37°59' W 122°25'4 7.4
2017-Oct-17 12:30N 37°56' W 122°25'4 7.3
2017-Oct-17 12:00N 37°52' W 122°24'4 8.8
2017-Oct-17 11:30N 37°48' W 122°23'1 0.1
2017-Oct-16 19:12N 37°46' W 122°23'0 0.9
2017-Oct-16 19:00N 37°47' W 122°23'3 5.0
2017-Oct-16 18:30N 37°49' W 122°25'0 0.0
2017-Oct-16 18:00N 37°49' W 122°25'0 0.0
2017-Oct-16 17:30N 37°49' W 122°25'0 0.0
2017-Oct-16 17:00N 37°49' W 122°25'0 0.0
2017-Oct-16 16:30N 37°49' W 122°25'3 5.6
2017-Oct-16 16:01N 37°51' W 122°25'4 7.7
2017-Oct-16 15:30N 37°55' W 122°25'0 0.2
2017-Oct-16 15:00N 37°55' W 122°25'0 0.1
2017-Oct-16 14:30N 37°55' W 122°25'2 2.4
2017-Oct-16 13:30N 37°53' W 122°24'4 7.5
2017-Oct-16 13:01N 37°49' W 122°23'3 5.5
2017-Oct-16 12:31N 37°46' W 122°23'0 0.0
2017-Oct-16 00:19N 37°46' W 122°23'0 0.6
2017-Oct-16 00:00N 37°46' W 122°23'2 4.9
2017-Oct-15 23:30N 37°45' W 122°20'0 0.2
2017-Oct-15 23:00N 37°45' W 122°20'0 0.0
2017-Oct-15 22:30N 37°45' W 122°20'0 0.0
2017-Oct-15 22:00N 37°46' W 122°20'2 3.6
2017-Oct-15 21:30N 37°46' W 122°22'1 0.0
2017-Oct-14 02:16N 37°46' W 122°23'1 5.4
2017-Oct-14 02:00N 37°48' W 122°23'4 8.8
2017-Oct-14 01:31N 37°52' W 122°24'3 6.1
2017-Oct-14 01:01N 37°55' W 122°25'0 0.6
2017-Oct-14 00:30N 37°55' W 122°25'2 3.4
2017-Oct-14 00:01N 37°53' W 122°24'2 4.2
2017-Oct-13 23:31N 37°51' W 122°23'2 3.8
2017-Oct-13 23:00N 37°49' W 122°23'2 3.5
2017-Oct-13 22:30N 37°48' W 122°23'0 0.1
2017-Oct-13 22:01N 37°48' W 122°23'0 0.1
2017-Oct-13 21:31N 37°48' W 122°23'2 3.7
2017-Oct-13 21:01N 37°47' W 122°21'3 5.4
2017-Oct-13 20:31N 37°47' W 122°18'3 5.2
2017-Oct-13 20:01N 37°47' W 122°21'1 1.7
2017-Oct-13 19:31N 37°46' W 122°22'3 6.2
2017-Oct-13 19:00N 37°44' W 122°20'0 0.0
2017-Oct-13 18:31N 37°44' W 122°20'0 0.0
2017-Oct-13 18:00N 37°44' W 122°20'0 0.0
2017-Oct-13 17:30N 37°44' W 122°20'0 0.1
2017-Oct-13 17:01N 37°44' W 122°20'0 0.1
2017-Oct-13 16:30N 37°44' W 122°20'0 0.2
2017-Oct-13 16:00N 37°44' W 122°20'0 0.6
2017-Oct-13 15:31N 37°44' W 122°20'4 7.4
2017-Oct-13 15:01N 37°47' W 122°23'0 0.0
2017-Oct-12 19:04N 37°46' W 122°23'0 0.0
2017-Oct-12 19:00N 37°46' W 122°23'4 8.1
2017-Oct-12 18:30N 37°47' W 122°18'0 0.0
2017-Oct-12 18:00N 37°47' W 122°18'0 0.0
2017-Oct-12 17:31N 37°47' W 122°18'0 0.0
2017-Oct-12 17:00N 37°47' W 122°18'0 0.0
2017-Oct-12 16:31N 37°47' W 122°18'0 0.0
2017-Oct-12 16:00N 37°47' W 122°18'0 0.1
2017-Oct-12 15:30N 37°47' W 122°18'0 0.1
2017-Oct-12 15:01N 37°47' W 122°18'0 0.6
2017-Oct-12 14:31N 37°46' W 122°18'0 0.6
2017-Oct-12 14:01N 37°47' W 122°18'1 2.5
2017-Oct-12 13:30N 37°46' W 122°20'3 5.4
2017-Oct-12 13:01N 37°46' W 122°23'0 0.0
2017-Oct-11 22:03N 37°46' W 122°23'0 0.0
2017-Oct-11 22:01N 37°46' W 122°23'1 2.4
2017-Oct-11 21:31N 37°48' W 122°23'0 0.0
2017-Oct-11 21:01N 37°48' W 122°23'1 2.4
2017-Oct-11 20:30N 37°47' W 122°23'3 6.8
2017-Oct-11 20:01N 37°46' W 122°19'0 0.6
2017-Oct-11 19:30N 37°46' W 122°18'0 0.4
2017-Oct-11 19:01N 37°46' W 122°18'0 0.0
2017-Oct-11 18:31N 37°46' W 122°18'0 0.0
2017-Oct-11 18:00N 37°46' W 122°18'0 0.0
2017-Oct-11 17:31N 37°46' W 122°18'0 0.1
2017-Oct-11 17:01N 37°46' W 122°18'4 0.2
2017-Oct-10 17:50N 37°46' W 122°23'1 3.8
2017-Oct-10 17:30N 37°48' W 122°23'0 0.1
2017-Oct-10 17:01N 37°48' W 122°23'0 0.1
2017-Oct-10 16:30N 37°48' W 122°23'0 0.0
2017-Oct-10 16:01N 37°48' W 122°23'1 2.2
2017-Oct-10 15:31N 37°47' W 122°23'0 0.2
2017-Oct-10 15:01N 37°47' W 122°23'0 0.0
2017-Oct-09 23:36N 37°46' W 122°23'0 0.0
2017-Oct-09 23:30N 37°46' W 122°23'0 0.6
2017-Oct-09 23:00N 37°46' W 122°23'2 3.9
2017-Oct-09 22:30N 37°44' W 122°22'2 4.5
2017-Oct-09 22:00N 37°47' W 122°23'2 4.2
2017-Oct-09 21:30N 37°46' W 122°20'2 3.7
2017-Oct-09 21:00N 37°46' W 122°18'0 0.2
2017-Oct-09 20:30N 37°46' W 122°18'0 0.1
2017-Oct-09 20:00N 37°46' W 122°18'0 0.0
2017-Oct-09 19:30N 37°46' W 122°18'0 0.0
2017-Oct-09 19:00N 37°46' W 122°18'0 0.0
2017-Oct-09 18:30N 37°46' W 122°18'0 0.0
2017-Oct-09 18:00N 37°46' W 122°18'0 0.0
2017-Oct-09 17:30N 37°46' W 122°18'0 0.0
2017-Oct-09 17:00N 37°46' W 122°18'0 0.0
2017-Oct-09 16:30N 37°46' W 122°18'0 0.0
2017-Oct-09 16:00N 37°46' W 122°18'2 4.8
2017-Oct-09 15:30N 37°47' W 122°21'2 3.1
2017-Oct-09 15:00N 37°46' W 122°23'  
Track history (hours):
 
Tides and Currents Weather Stations Pressure Air Temp Water Temp Dewpoint Dewpoint Depression Visibility Wind Speed Wind Dir Waves Ship Positions

Pedro Point

Owner: TAURUS MARINE, SAN FRANCISCO, CA. More information available from US FCC via Universal Licensing System and Coast Guard Vessel Documentation Center.

Last reported at 2017-Oct-18 18:30 UTC. Time now 2017-Oct-18 18:40 UTC.
Position N 37°46' W 122°23'.

; draft 1.7 m.

Type: Towing. MMSI: 366915390.

Date/timePositionNaut miles runAvg speedWind from/ knotsBaromVisibWave heightAir tempDewpointWater temp
2017-Oct-18 18:30N 37°46' W 122°23'0 0.0
2017-Oct-18 18:00N 37°46' W 122°23'0 0.0
2017-Oct-18 17:30N 37°46' W 122°23'0 0.0
2017-Oct-18 17:00N 37°46' W 122°23'0 0.1
2017-Oct-18 16:30N 37°46' W 122°23'0 0.0
2017-Oct-18 16:00N 37°46' W 122°23'0 0.0
2017-Oct-18 15:30N 37°46' W 122°23'0 0.0
2017-Oct-18 15:00N 37°46' W 122°23'0 0.3
2017-Oct-18 14:00N 37°46' W 122°23'0 0.0
2017-Oct-17 23:05N 37°46' W 122°23'0 2.0
2017-Oct-17 23:00N 37°47' W 122°23'3 5.9
2017-Oct-17 22:30N 37°49' W 122°24'4 7.9
2017-Oct-17 22:00N 37°53' W 122°25'5 9.9
2017-Oct-17 21:30N 37°58' W 122°26'5 9.4
2017-Oct-17 21:00N 38°02' W 122°22'4 8.0
2017-Oct-17 20:30N 38°03' W 122°17'3 5.2
2017-Oct-17 19:59N 38°06' W 122°16'0 0.3
2017-Oct-17 19:26N 38°06' W 122°16'0 0.0
2017-Oct-17 18:54N 38°06' W 122°16'0 0.1
2017-Oct-17 18:30N 38°06' W 122°16'0 0.0
2017-Oct-17 16:00N 38°06' W 122°16'0 0.1
2017-Oct-17 15:12N 38°06' W 122°16'0 0.3
2017-Oct-17 14:46N 38°06' W 122°16'1 2.6
2017-Oct-17 14:30N 38°05' W 122°15'3 5.8
2017-Oct-17 14:00N 38°03' W 122°18'3 6.6
2017-Oct-17 13:30N 38°02' W 122°22'4 7.5
2017-Oct-17 13:00N 37°59' W 122°25'4 7.4
2017-Oct-17 12:30N 37°56' W 122°25'4 7.3
2017-Oct-17 12:00N 37°52' W 122°24'4 8.8
2017-Oct-17 11:30N 37°48' W 122°23'1 0.1
2017-Oct-16 19:12N 37°46' W 122°23'0 0.9
2017-Oct-16 19:00N 37°47' W 122°23'3 5.0
2017-Oct-16 18:30N 37°49' W 122°25'0 0.0
2017-Oct-16 18:00N 37°49' W 122°25'0 0.0
2017-Oct-16 17:30N 37°49' W 122°25'0 0.0
2017-Oct-16 17:00N 37°49' W 122°25'0 0.0
2017-Oct-16 16:30N 37°49' W 122°25'3 5.6
2017-Oct-16 16:01N 37°51' W 122°25'4 7.7
2017-Oct-16 15:30N 37°55' W 122°25'0 0.2
2017-Oct-16 15:00N 37°55' W 122°25'0 0.1
2017-Oct-16 14:30N 37°55' W 122°25'2 2.4
2017-Oct-16 13:30N 37°53' W 122°24'4 7.5
2017-Oct-16 13:01N 37°49' W 122°23'3 5.5
2017-Oct-16 12:31N 37°46' W 122°23'0 0.0
2017-Oct-16 00:19N 37°46' W 122°23'0 0.6
2017-Oct-16 00:00N 37°46' W 122°23'2 4.9
2017-Oct-15 23:30N 37°45' W 122°20'0 0.2
2017-Oct-15 23:00N 37°45' W 122°20'0 0.0
2017-Oct-15 22:30N 37°45' W 122°20'0 0.0
2017-Oct-15 22:00N 37°46' W 122°20'2 3.6
2017-Oct-15 21:30N 37°46' W 122°22'1 0.0
2017-Oct-14 02:16N 37°46' W 122°23'1 5.4
2017-Oct-14 02:00N 37°48' W 122°23'4 8.8
2017-Oct-14 01:31N 37°52' W 122°24'3 6.1
2017-Oct-14 01:01N 37°55' W 122°25'0 0.6
2017-Oct-14 00:30N 37°55' W 122°25'2 3.4
2017-Oct-14 00:01N 37°53' W 122°24'2 4.2
2017-Oct-13 23:31N 37°51' W 122°23'2 3.8
2017-Oct-13 23:00N 37°49' W 122°23'2 3.5
2017-Oct-13 22:30N 37°48' W 122°23'0 0.1
2017-Oct-13 22:01N 37°48' W 122°23'0 0.1
2017-Oct-13 21:31N 37°48' W 122°23'2 3.7
2017-Oct-13 21:01N 37°47' W 122°21'3 5.4
2017-Oct-13 20:31N 37°47' W 122°18'3 5.2
2017-Oct-13 20:01N 37°47' W 122°21'1 1.7
2017-Oct-13 19:31N 37°46' W 122°22'3 6.2
2017-Oct-13 19:00N 37°44' W 122°20'0 0.0
2017-Oct-13 18:31N 37°44' W 122°20'0 0.0
2017-Oct-13 18:00N 37°44' W 122°20'0 0.0
2017-Oct-13 17:30N 37°44' W 122°20'0 0.1
2017-Oct-13 17:01N 37°44' W 122°20'0 0.1
2017-Oct-13 16:30N 37°44' W 122°20'0 0.2
2017-Oct-13 16:00N 37°44' W 122°20'0 0.6
2017-Oct-13 15:31N 37°44' W 122°20'4 7.4
2017-Oct-13 15:01N 37°47' W 122°23'0 0.0
2017-Oct-12 19:04N 37°46' W 122°23'0 0.0
2017-Oct-12 19:00N 37°46' W 122°23'4 8.1
2017-Oct-12 18:30N 37°47' W 122°18'0 0.0
2017-Oct-12 18:00N 37°47' W 122°18'0 0.0
2017-Oct-12 17:31N 37°47' W 122°18'0 0.0
2017-Oct-12 17:00N 37°47' W 122°18'0 0.0
2017-Oct-12 16:31N 37°47' W 122°18'0 0.0
2017-Oct-12 16:00N 37°47' W 122°18'0 0.1
2017-Oct-12 15:30N 37°47' W 122°18'0 0.1
2017-Oct-12 15:01N 37°47' W 122°18'0 0.6
2017-Oct-12 14:31N 37°46' W 122°18'0 0.6
2017-Oct-12 14:01N 37°47' W 122°18'1 2.5
2017-Oct-12 13:30N 37°46' W 122°20'3 5.4
2017-Oct-12 13:01N 37°46' W 122°23'0 0.0
2017-Oct-11 22:03N 37°46' W 122°23'0 0.0
2017-Oct-11 22:01N 37°46' W 122°23'1 2.4
2017-Oct-11 21:31N 37°48' W 122°23'0 0.0
2017-Oct-11 21:01N 37°48' W 122°23'1 2.4
2017-Oct-11 20:30N 37°47' W 122°23'3 6.8
2017-Oct-11 20:01N 37°46' W 122°19'0 0.6
2017-Oct-11 19:30N 37°46' W 122°18'0 0.4
2017-Oct-11 19:01N 37°46' W 122°18'0 0.0
2017-Oct-11 18:31N 37°46' W 122°18'0 0.0
2017-Oct-11 18:00N 37°46' W 122°18'0 0.0
2017-Oct-11 17:31N 37°46' W 122°18'0 0.1
2017-Oct-11 17:01N 37°46' W 122°18'4 0.2
2017-Oct-10 17:50N 37°46' W 122°23'1 3.8
2017-Oct-10 17:30N 37°48' W 122°23'0 0.1
2017-Oct-10 17:01N 37°48' W 122°23'0 0.1
2017-Oct-10 16:30N 37°48' W 122°23'0 0.0
2017-Oct-10 16:01N 37°48' W 122°23'1 2.2
2017-Oct-10 15:31N 37°47' W 122°23'0 0.2
2017-Oct-10 15:01N 37°47' W 122°23'0 0.0
2017-Oct-09 23:36N 37°46' W 122°23'0 0.0
2017-Oct-09 23:30N 37°46' W 122°23'0 0.6
2017-Oct-09 23:00N 37°46' W 122°23'2 3.9
2017-Oct-09 22:30N 37°44' W 122°22'2 4.5
2017-Oct-09 22:00N 37°47' W 122°23'2 4.2
2017-Oct-09 21:30N 37°46' W 122°20'2 3.7
2017-Oct-09 21:00N 37°46' W 122°18'0 0.2
2017-Oct-09 20:30N 37°46' W 122°18'0 0.1
2017-Oct-09 20:00N 37°46' W 122°18'0 0.0
2017-Oct-09 19:30N 37°46' W 122°18'0 0.0
2017-Oct-09 19:00N 37°46' W 122°18'0 0.0
2017-Oct-09 18:30N 37°46' W 122°18'0 0.0
2017-Oct-09 18:00N 37°46' W 122°18'0 0.0
2017-Oct-09 17:30N 37°46' W 122°18'0 0.0
2017-Oct-09 17:00N 37°46' W 122°18'0 0.0
2017-Oct-09 16:30N 37°46' W 122°18'0 0.0
2017-Oct-09 16:00N 37°46' W 122°18'2 4.8
2017-Oct-09 15:30N 37°47' W 122°21'2 3.1
2017-Oct-09 15:00N 37°46' W 122°23'  

Dump ship's entire track history